Time,TemperatureF,DewpointF,PressureIn,WindDirection,WindDirectionDegrees,WindSpeedMPH,WindSpeedGustMPH,Humidity,HourlyPrecipIn,Conditions,Clouds,dailyrainin,SoftwareType,DateUTC
2013-01-27 00:01:00,10.9,-1.7,30.09,NW,313,0.0,0.0,56,0.00,,---,0.00,VWS V14.01,2013-01-27 05:01:00,
2013-01-27 00:02:00,10.9,-1.7,30.09,NW,313,0.0,0.0,56,0.00,,---,0.00,VWS V14.01,2013-01-27 05:02:00,
2013-01-27 00:03:00,10.9,-1.7,30.09,NW,313,0.0,0.0,56,0.00,,---,0.00,VWS V14.01,2013-01-27 05:03:00,
2013-01-27 00:08:00,10.8,-1.8,30.09,NW,313,0.0,0.0,56,0.00,,---,0.00,VWS V14.01,2013-01-27 05:08:00,
2013-01-27 00:12:00,10.6,-2.0,30.09,NW,313,0.0,0.0,56,0.00,,---,0.00,VWS V14.01,2013-01-27 05:12:00,
2013-01-27 00:17:00,10.2,-2.3,30.09,NW,313,0.0,0.0,56,0.00,,---,0.00,VWS V14.01,2013-01-27 05:17:00,
2013-01-27 00:23:00,10.2,-2.3,30.09,NW,313,0.0,0.0,56,0.00,,---,0.00,VWS V14.01,2013-01-27 05:23:00,
2013-01-27 00:28:00,12.6,-0.2,30.09,NW,313,0.0,0.0,56,0.00,,---,0.00,VWS V14.01,2013-01-27 05:28:00,
2013-01-27 00:34:00,12.6,-0.2,30.09,NW,313,0.0,0.0,56,0.00,,---,0.00,VWS V14.01,2013-01-27 05:34:00,
2013-01-27 00:40:00,11.1,-1.5,30.09,NW,313,0.0,0.0,56,0.00,,---,0.00,VWS V14.01,2013-01-27 05:40:00,
2013-01-27 00:45:00,10.9,-1.7,30.09,NW,313,0.0,0.0,56,0.00,,---,0.00,VWS V14.01,2013-01-27 05:45:00,
2013-01-27 00:51:00,10.9,-1.7,30.09,NW,313,0.0,0.0,56,0.00,,---,0.00,VWS V14.01,2013-01-27 05:51:00,
2013-01-27 00:56:00,10.8,-1.8,30.09,NW,313,0.0,0.0,56,0.00,,---,0.00,VWS V14.01,2013-01-27 05:56:00,
2013-01-27 01:02:00,13.8,1.0,30.09,NW,313,0.0,0.0,56,0.00,,---,0.00,VWS V14.01,2013-01-27 06:02:00,
2013-01-27 01:08:00,13.8,1.0,30.09,NW,313,0.0,0.0,56,0.00,,---,0.00,VWS V14.01,2013-01-27 06:08:00,
2013-01-27 01:13:00,13.8,1.0,30.09,NW,313,0.0,0.0,56,0.00,,---,0.00,VWS V14.01,2013-01-27 06:13:00,
2013-01-27 01:19:00,11.1,-1.1,30.09,NW,313,0.0,0.0,57,0.00,,---,0.00,VWS V14.01,2013-01-27 06:19:00,
2013-01-27 01:24:00,10.8,-1.5,30.09,NW,313,0.0,0.0,57,0.00,,---,0.00,VWS V14.01,2013-01-27 06:24:00,
2013-01-27 01:30:00,9.7,-2.5,30.09,NW,313,0.0,0.0,57,0.00,,---,0.00,VWS V14.01,2013-01-27 06:30:00,
2013-01-27 01:35:00,9.7,-2.5,30.09,NW,313,0.0,0.0,57,0.00,,---,0.00,VWS V14.01,2013-01-27 06:35:00,
2013-01-27 01:41:00,9.7,-2.5,30.09,NW,313,0.0,0.0,57,0.00,,---,0.00,VWS V14.01,2013-01-27 06:41:00,
2013-01-27 01:46:00,18.7,8.5,30.09,NW,313,0.0,0.0,64,0.00,,---,0.00,VWS V14.01,2013-01-27 06:46:00,
2013-01-27 01:51:00,18.7,8.5,30.09,NW,313,0.0,0.0,64,0.00,,---,0.00,VWS V14.01,2013-01-27 06:51:00,
2013-01-27 01:57:00,11.1,-1.1,30.09,NW,313,0.0,0.0,57,0.00,,---,0.00,VWS V14.01,2013-01-27 06:57:00,
2013-01-27 02:02:00,10.6,-1.6,30.09,NW,313,0.0,0.0,57,0.00,,---,0.00,VWS V14.01,2013-01-27 07:02:00,
2013-01-27 02:08:00,9.1,-3.0,30.09,NW,313,0.0,0.0,57,0.00,,---,0.00,VWS V14.01,2013-01-27 07:08:00,
2013-01-27 02:13:00,8.4,-3.7,30.09,NW,313,0.0,0.0,57,0.00,,---,0.00,VWS V14.01,2013-01-27 07:13:00,
2013-01-27 02:19:00,13.5,1.1,30.09,NW,313,0.0,0.0,57,0.00,,---,0.00,VWS V14.01,2013-01-27 07:19:00,
2013-01-27 02:25:00,13.8,1.4,30.09,NW,313,0.0,0.0,57,0.00,,---,0.00,VWS V14.01,2013-01-27 07:25:00,
2013-01-27 02:30:00,10.4,-1.8,30.09,NW,313,0.0,0.0,57,0.00,,---,0.00,VWS V14.01,2013-01-27 07:30:00,
2013-01-27 02:35:00,10.4,-1.8,30.09,NW,313,0.0,0.0,57,0.00,,---,0.00,VWS V14.01,2013-01-27 07:35:00,
2013-01-27 02:40:00,8.6,-3.5,30.09,NW,313,0.0,0.0,57,0.00,,---,0.00,VWS V14.01,2013-01-27 07:40:00,
2013-01-27 02:46:00,7.9,-4.2,30.09,NW,313,0.0,0.0,57,0.00,,---,0.00,VWS V14.01,2013-01-27 07:46:00,
2013-01-27 02:51:00,7.7,-4.3,30.09,NW,313,0.0,0.0,57,0.00,,---,0.00,VWS V14.01,2013-01-27 07:51:00,
2013-01-27 02:56:00,7.7,-4.3,30.09,NW,313,0.0,0.0,57,0.00,,---,0.00,VWS V14.01,2013-01-27 07:56:00,
2013-01-27 03:01:00,14.2,1.8,30.09,NW,313,0.0,0.0,57,0.00,,---,0.00,VWS V14.01,2013-01-27 08:01:00,
2013-01-27 03:07:00,10.2,-2.0,30.09,NW,313,0.0,0.0,57,0.00,,---,0.00,VWS V14.01,2013-01-27 08:07:00,
2013-01-27 03:12:00,7.9,-4.2,30.09,NW,313,0.0,0.0,57,0.00,,---,0.00,VWS V14.01,2013-01-27 08:12:00,
2013-01-27 03:18:00,7.7,-4.3,30.09,NW,313,0.0,0.0,57,0.00,,---,0.00,VWS V14.01,2013-01-27 08:18:00,
2013-01-27 03:23:00,7.3,-4.7,30.09,NW,313,0.0,0.0,57,0.00,,---,0.00,VWS V14.01,2013-01-27 08:23:00,
2013-01-27 03:29:00,12.0,-0.3,30.09,NW,313,0.0,0.0,57,0.00,,---,0.00,VWS V14.01,2013-01-27 08:29:00,
2013-01-27 03:35:00,12.0,-0.3,30.09,NW,313,0.0,0.0,57,0.00,,---,0.00,VWS V14.01,2013-01-27 08:35:00,
2013-01-27 03:40:00,9.0,-3.2,30.09,NW,313,0.0,0.0,57,0.00,,---,0.00,VWS V14.01,2013-01-27 08:40:00,
2013-01-27 03:46:00,7.9,-4.2,30.09,NW,313,0.0,0.0,57,0.00,,---,0.00,VWS V14.01,2013-01-27 08:46:00,
2013-01-27 03:51:00,7.3,-4.7,30.09,NW,313,0.0,0.0,57,0.00,,---,0.00,VWS V14.01,2013-01-27 08:51:00,
2013-01-27 03:57:00,7.0,-5.0,30.09,NW,313,0.0,0.0,57,0.00,,---,0.00,VWS V14.01,2013-01-27 08:57:00,
2013-01-27 04:02:00,7.0,-5.0,30.09,NW,313,0.0,0.0,57,0.00,,---,0.00,VWS V14.01,2013-01-27 09:02:00,
2013-01-27 04:08:00,7.0,-5.0,30.09,NW,313,0.0,0.0,57,0.00,,---,0.00,VWS V14.01,2013-01-27 09:08:00,
2013-01-27 04:14:00,8.6,-3.5,30.09,NW,313,0.0,0.0,57,0.00,,---,0.00,VWS V14.01,2013-01-27 09:14:00,
2013-01-27 04:19:00,7.5,-4.5,30.09,NW,313,0.0,0.0,57,0.00,,---,0.00,VWS V14.01,2013-01-27 09:19:00,
2013-01-27 04:25:00,7.2,-4.9,30.09,NW,313,0.0,0.0,57,0.00,,---,0.00,VWS V14.01,2013-01-27 09:25:00,
2013-01-27 04:31:00,7.2,-4.9,30.09,NW,313,0.0,0.0,57,0.00,,---,0.00,VWS V14.01,2013-01-27 09:31:00,
2013-01-27 04:36:00,6.3,-5.7,30.09,NW,313,0.0,0.0,57,0.00,,---,0.00,VWS V14.01,2013-01-27 09:36:00,
2013-01-27 04:42:00,6.3,-5.7,30.09,NW,313,0.0,0.0,57,0.00,,---,0.00,VWS V14.01,2013-01-27 09:42:00,
2013-01-27 04:47:00,11.5,-0.8,30.09,NW,313,0.0,0.0,57,0.00,,---,0.00,VWS V14.01,2013-01-27 09:47:00,
2013-01-27 04:53:00,11.5,-0.8,30.09,NW,313,0.0,0.0,57,0.00,,---,0.00,VWS V14.01,2013-01-27 09:53:00,
2013-01-27 04:59:00,7.9,-4.2,30.09,NW,313,0.0,0.0,57,0.00,,---,0.00,VWS V14.01,2013-01-27 09:59:00,
2013-01-27 05:04:00,7.0,-5.0,30.09,NW,313,0.0,0.0,57,0.00,,---,0.00,VWS V14.01,2013-01-27 10:04:00,
2013-01-27 05:10:00,7.9,-4.2,30.09,NW,313,0.0,0.0,57,0.00,,---,0.00,VWS V14.01,2013-01-27 10:10:00,
2013-01-27 05:15:00,10.0,-2.1,30.09,NW,313,0.0,0.0,57,0.00,,---,0.00,VWS V14.01,2013-01-27 10:15:00,
2013-01-27 05:21:00,10.0,-2.1,30.09,NW,313,0.0,0.0,57,0.00,,---,0.00,VWS V14.01,2013-01-27 10:21:00,
2013-01-27 05:27:00,7.5,-4.5,30.09,NW,313,0.0,0.0,57,0.00,,---,0.00,VWS V14.01,2013-01-27 10:27:00,
2013-01-27 05:32:00,7.5,-4.5,30.09,NW,313,0.0,0.0,57,0.00,,---,0.00,VWS V14.01,2013-01-27 10:32:00,
2013-01-27 05:38:00,6.8,-5.2,30.09,NW,313,0.0,0.0,57,0.00,,---,0.00,VWS V14.01,2013-01-27 10:38:00,
2013-01-27 05:43:00,6.8,-5.2,30.09,NW,313,0.0,0.0,57,0.00,,---,0.00,VWS V14.01,2013-01-27 10:43:00,
2013-01-27 05:49:00,16.5,5.1,30.09,NW,313,0.0,0.0,60,0.00,,---,0.00,VWS V14.01,2013-01-27 10:49:00,
2013-01-27 05:55:00,13.3,1.3,30.09,NW,313,0.0,0.0,58,0.00,,---,0.00,VWS V14.01,2013-01-27 10:55:00,
2013-01-27 06:00:00,13.3,1.3,30.09,NW,313,0.0,0.0,58,0.00,,---,0.00,VWS V14.01,2013-01-27 11:00:00,
2013-01-27 06:06:00,7.2,-4.5,30.09,NW,313,0.0,0.0,58,0.00,,---,0.00,VWS V14.01,2013-01-27 11:06:00,
2013-01-27 06:11:00,7.2,-4.5,30.09,NW,313,0.0,0.0,58,0.00,,---,0.00,VWS V14.01,2013-01-27 11:11:00,
2013-01-27 06:17:00,7.2,-4.5,30.09,NW,313,0.0,0.0,58,0.00,,---,0.00,VWS V14.01,2013-01-27 11:17:00,
2013-01-27 06:23:00,7.3,-4.3,30.09,NW,313,0.0,0.0,58,0.00,,---,0.00,VWS V14.01,2013-01-27 11:23:00,
2013-01-27 06:28:00,9.1,-2.6,30.09,NW,313,0.0,0.0,58,0.00,,---,0.00,VWS V14.01,2013-01-27 11:28:00,
2013-01-27 06:34:00,8.1,-3.7,30.09,NW,313,0.0,0.0,58,0.00,,---,0.00,VWS V14.01,2013-01-27 11:34:00,
2013-01-27 06:39:00,8.1,-3.7,30.09,NW,313,0.0,0.0,58,0.00,,---,0.00,VWS V14.01,2013-01-27 11:39:00,
2013-01-27 06:45:00,6.6,-5.0,30.09,NW,313,0.0,0.0,58,0.00,,---,0.00,VWS V14.01,2013-01-27 11:45:00,
2013-01-27 06:51:00,8.4,-3.3,30.09,NW,313,0.0,0.0,58,0.00,,---,0.00,VWS V14.01,2013-01-27 11:51:00,
2013-01-27 06:56:00,10.0,-1.8,30.09,NW,313,0.0,0.0,58,0.00,,---,0.00,VWS V14.01,2013-01-27 11:56:00,
2013-01-27 07:02:00,10.8,-1.1,30.09,NW,313,0.0,0.0,58,0.00,,---,0.00,VWS V14.01,2013-01-27 12:02:00,
2013-01-27 07:07:00,13.6,1.6,30.09,NW,313,0.0,0.0,58,0.00,,---,0.00,VWS V14.01,2013-01-27 12:07:00,
2013-01-27 07:13:00,9.7,-2.1,30.09,NW,313,0.0,0.0,58,0.00,,---,0.00,VWS V14.01,2013-01-27 12:13:00,
2013-01-27 07:19:00,9.7,-2.1,30.09,NW,313,0.0,0.0,58,0.00,,---,0.00,VWS V14.01,2013-01-27 12:19:00,
2013-01-27 07:24:00,5.9,-5.7,30.09,NW,313,0.0,0.0,58,0.00,,---,0.00,VWS V14.01,2013-01-27 12:24:00,
2013-01-27 07:30:00,5.9,-5.7,30.09,WNW,303,0.0,0.0,58,0.00,,---,0.00,VWS V14.01,2013-01-27 12:30:00,
2013-01-27 07:36:00,5.9,-5.7,30.09,WNW,303,0.0,0.0,58,0.00,,---,0.00,VWS V14.01,2013-01-27 12:36:00,
2013-01-27 07:41:00,6.3,-5.3,30.09,WNW,303,0.0,0.0,58,0.00,,---,0.00,VWS V14.01,2013-01-27 12:41:00,
2013-01-27 07:47:00,7.0,-4.7,30.09,WNW,303,0.0,0.0,58,0.00,,---,0.00,VWS V14.01,2013-01-27 12:47:00,
2013-01-27 07:52:00,9.7,-2.1,30.09,WNW,303,0.0,0.0,58,0.00,,---,0.00,VWS V14.01,2013-01-27 12:52:00,
2013-01-27 07:58:00,12.2,0.3,30.09,WNW,303,0.0,0.0,58,0.00,,---,0.00,VWS V14.01,2013-01-27 12:58:00,
2013-01-27 08:04:00,9.7,-2.1,30.09,WNW,303,0.0,0.0,58,0.00,,---,0.00,VWS V14.01,2013-01-27 13:04:00,
2013-01-27 08:09:00,9.3,-2.5,30.09,WNW,303,0.0,0.0,58,0.00,,---,0.00,VWS V14.01,2013-01-27 13:09:00,
2013-01-27 08:15:00,8.1,-3.7,30.09,WNW,303,0.0,0.0,58,0.00,,---,0.00,VWS V14.01,2013-01-27 13:15:00,
2013-01-27 08:20:00,8.1,-3.7,30.09,WNW,303,0.0,0.0,58,0.00,,---,0.00,VWS V14.01,2013-01-27 13:20:00,
2013-01-27 08:26:00,9.9,-2.0,30.09,WNW,303,0.0,0.0,58,0.00,,---,0.00,VWS V14.01,2013-01-27 13:26:00,
2013-01-27 08:31:00,10.6,-1.3,30.09,WNW,303,0.0,0.0,58,0.00,,---,0.00,VWS V14.01,2013-01-27 13:31:00,
2013-01-27 08:37:00,11.1,-0.8,30.09,NW,310,0.0,0.0,58,0.00,,---,0.00,VWS V14.01,2013-01-27 13:37:00,
2013-01-27 08:43:00,11.8,-0.1,30.09,NNW,332,0.0,0.0,58,0.00,,---,0.00,VWS V14.01,2013-01-27 13:43:00,
2013-01-27 08:48:00,12.0,0.1,30.09,NNW,332,0.0,0.0,58,0.00,,---,0.00,VWS V14.01,2013-01-27 13:48:00,
2013-01-27 08:53:00,12.0,0.1,30.09,NNW,332,0.0,0.0,58,0.00,,---,0.00,VWS V14.01,2013-01-27 13:53:00,
2013-01-27 08:58:00,11.7,-0.2,30.09,NNW,332,0.0,0.0,58,0.00,,---,0.00,VWS V14.01,2013-01-27 13:58:00,
2013-01-27 09:04:00,14.7,2.6,30.09,NNW,332,0.0,0.0,58,0.00,,---,0.00,VWS V14.01,2013-01-27 14:04:00,
2013-01-27 09:09:00,15.4,3.7,30.09,NNW,341,0.0,0.0,59,0.00,,---,0.00,VWS V14.01,2013-01-27 14:09:00,
2013-01-27 09:14:00,15.4,3.3,30.09,NNW,341,0.0,0.0,58,0.00,,---,0.00,VWS V14.01,2013-01-27 14:14:00,
2013-01-27 09:19:00,16.5,5.1,30.09,SSE,162,0.0,0.0,60,0.00,,---,0.00,VWS V14.01,2013-01-27 14:19:00,
2013-01-27 09:25:00,19.4,10.2,30.09,SSE,162,0.0,0.0,67,0.00,,---,0.00,VWS V14.01,2013-01-27 14:25:00,
2013-01-27 09:30:00,20.3,12.1,30.09,East,85,3.1,3.1,70,0.00,,---,0.00,VWS V14.01,2013-01-27 14:30:00,
2013-01-27 09:36:00,21.0,13.7,30.09,East,95,3.6,4.9,73,0.00,,---,0.00,VWS V14.01,2013-01-27 14:36:00,
2013-01-27 09:42:00,22.8,16.7,30.09,East,87,0.0,0.0,77,0.00,,---,0.00,VWS V14.01,2013-01-27 14:42:00,
2013-01-27 09:48:00,24.1,18.5,30.09,SE,140,3.6,3.6,79,0.00,,---,0.00,VWS V14.01,2013-01-27 14:48:00,
2013-01-27 09:54:00,24.6,19.3,30.09,SE,140,3.6,3.6,80,0.00,,---,0.00,VWS V14.01,2013-01-27 14:54:00,
2013-01-27 09:59:00,25.2,19.9,30.09,SE,140,3.6,3.6,80,0.00,,---,0.00,VWS V14.01,2013-01-27 14:59:00,
2013-01-27 10:04:00,25.5,20.5,30.09,ESE,121,0.0,0.0,81,0.00,,---,0.00,VWS V14.01,2013-01-27 15:04:00,
2013-01-27 10:09:00,26.1,21.0,30.09,ESE,121,0.0,0.0,81,0.00,,---,0.00,VWS V14.01,2013-01-27 15:09:00,
2013-01-27 10:15:00,27.0,22.5,30.09,ESE,106,2.2,2.2,83,0.00,,---,0.00,VWS V14.01,2013-01-27 15:15:00,
2013-01-27 10:20:00,27.0,22.5,30.09,East,82,5.4,5.4,83,0.00,,---,0.00,VWS V14.01,2013-01-27 15:20:00,
2013-01-27 10:26:00,27.7,23.8,30.09,East,86,2.7,5.4,85,0.00,,---,0.00,VWS V14.01,2013-01-27 15:26:00,
2013-01-27 10:32:00,27.9,24.0,30.09,East,100,4.0,4.0,85,0.00,,---,0.00,VWS V14.01,2013-01-27 15:32:00,
2013-01-27 10:37:00,27.9,24.0,30.09,East,81,4.5,4.5,85,0.00,,---,0.00,VWS V14.01,2013-01-27 15:37:00,
2013-01-27 10:43:00,28.0,24.4,30.09,East,81,4.5,4.5,86,0.00,,---,0.00,VWS V14.01,2013-01-27 15:43:00,
2013-01-27 10:48:00,27.5,23.3,30.09,East,94,4.0,4.0,84,0.00,,---,0.00,VWS V14.01,2013-01-27 15:48:00,
2013-01-27 10:54:00,27.9,24.0,30.09,East,90,4.0,4.0,85,0.00,,---,0.00,VWS V14.01,2013-01-27 15:54:00,
2013-01-27 10:59:00,27.5,23.6,30.09,East,90,4.0,4.0,85,0.00,,---,0.00,VWS V14.01,2013-01-27 15:59:00,
2013-01-27 11:05:00,28.8,25.4,30.09,NNE,25,6.3,6.3,87,0.00,,---,0.00,VWS V14.01,2013-01-27 16:05:00,
2013-01-27 11:10:00,28.8,25.4,30.09,East,81,3.6,3.6,87,0.00,,---,0.00,VWS V14.01,2013-01-27 16:10:00,
2013-01-27 12:18:00,29.5,-8.8,0.00,East,98,6.7,6.7,18,0.00,,---,0.00,VWS V14.01,2013-01-27 17:18:00,
2013-01-27 12:24:00,29.7,-8.6,0.00,East,82,6.3,10.5,18,0.00,,---,0.00,VWS V14.01,2013-01-27 17:24:00,
2013-01-27 12:29:00,29.7,-8.6,0.00,ESE,110,3.1,5.8,18,0.00,,---,0.00,VWS V14.01,2013-01-27 17:29:00,
2013-01-27 12:35:00,30.4,4.1,0.00,ESE,110,4.0,7.6,32,0.00,,---,0.00,VWS V14.01,2013-01-27 17:35:00,
2013-01-27 12:40:00,30.9,-5.4,0.00,East,95,3.1,4.9,20,0.00,,---,0.00,VWS V14.01,2013-01-27 17:40:00,
2013-01-27 12:45:00,30.7,-5.6,0.00,SW,223,0.0,0.0,20,0.00,,---,0.00,VWS V14.01,2013-01-27 17:45:00,
2013-01-27 12:50:00,30.0,-8.3,0.00,East,80,2.7,5.8,18,0.00,,---,0.00,VWS V14.01,2013-01-27 17:50:00,
2013-01-27 12:55:00,29.5,-8.8,0.00,East,93,3.1,5.4,18,0.00,,---,0.00,VWS V14.01,2013-01-27 17:55:00,
2013-01-27 13:00:00,29.1,-9.1,0.00,East,93,5.8,7.2,18,0.00,,---,0.00,VWS V14.01,2013-01-27 18:00:00,
2013-01-27 13:06:00,28.6,-9.5,0.00,East,81,5.4,6.3,18,0.00,,---,0.00,VWS V14.01,2013-01-27 18:06:00,
2013-01-27 13:11:00,28.2,-9.8,0.00,East,79,4.0,9.6,18,0.00,,---,0.00,VWS V14.01,2013-01-27 18:11:00,
2013-01-27 13:17:00,29.3,5.7,0.00,SW,234,3.6,4.0,36,0.00,,---,0.00,VWS V14.01,2013-01-27 18:17:00,
2013-01-27 13:22:00,28.9,2.1,0.00,ESE,102,5.4,8.7,31,0.00,,---,0.00,VWS V14.01,2013-01-27 18:22:00,
2013-01-27 13:28:00,28.9,-0.1,0.00,ESE,103,6.3,6.3,28,0.00,,---,0.00,VWS V14.01,2013-01-27 18:28:00,
2013-01-27 13:33:00,28.9,-2.5,0.00,SE,137,3.1,5.4,25,0.00,,---,0.00,VWS V14.01,2013-01-27 18:33:00,
2013-01-27 13:39:00,28.9,-7.1,0.00,ENE,67,3.1,3.6,20,0.00,,---,0.00,VWS V14.01,2013-01-27 18:39:00,
2013-01-27 13:45:00,28.6,-9.5,0.00,North,8,3.1,3.6,18,0.00,,---,0.00,VWS V14.01,2013-01-27 18:45:00,
2013-01-27 13:50:00,28.6,-9.5,0.00,ESE,123,2.2,3.6,18,0.00,,---,0.00,VWS V14.01,2013-01-27 18:50:00,
2013-01-27 13:56:00,28.6,-9.5,0.00,ESE,110,5.8,5.8,18,0.00,,---,0.00,VWS V14.01,2013-01-27 18:56:00,
2013-01-27 14:01:00,28.6,-9.5,0.00,ESE,105,2.7,5.4,18,0.00,,---,0.00,VWS V14.01,2013-01-27 19:01:00,
2013-01-27 14:07:00,29.1,-9.1,0.00,ESE,112,3.1,3.6,18,0.00,,---,0.00,VWS V14.01,2013-01-27 19:07:00,
2013-01-27 14:13:00,29.1,-9.1,0.00,ENE,74,6.3,6.3,18,0.00,,---,0.00,VWS V14.01,2013-01-27 19:13:00,
2013-01-27 14:19:00,28.8,-9.4,0.00,East,79,4.9,4.9,18,0.00,,---,0.00,VWS V14.01,2013-01-27 19:19:00,
2013-01-27 14:25:00,29.5,-8.8,0.00,East,97,0.0,4.9,18,0.00,,---,0.00,VWS V14.01,2013-01-27 19:25:00,
2013-01-27 14:31:00,30.0,-8.3,0.00,SE,129,9.2,9.2,18,0.00,,---,0.00,VWS V14.01,2013-01-27 19:31:00,
2013-01-27 14:37:00,29.5,-8.8,0.00,ESE,103,3.1,3.6,18,0.00,,---,0.00,VWS V14.01,2013-01-27 19:37:00,
2013-01-27 14:42:00,28.9,-9.2,0.00,East,93,5.8,5.8,18,0.00,,---,0.00,VWS V14.01,2013-01-27 19:42:00,
2013-01-27 14:48:00,28.9,-9.2,0.00,East,91,3.6,3.6,18,0.00,,---,0.00,VWS V14.01,2013-01-27 19:48:00,
2013-01-27 14:54:00,29.1,-9.1,0.00,East,88,0.0,0.0,18,0.00,,---,0.00,VWS V14.01,2013-01-27 19:54:00,
2013-01-27 14:59:00,29.1,-9.1,0.00,East,97,5.8,5.8,18,0.00,,---,0.00,VWS V14.01,2013-01-27 19:59:00,
2013-01-27 15:05:00,29.1,-6.9,0.00,ENE,69,5.4,5.4,20,0.00,,---,0.00,VWS V14.01,2013-01-27 20:05:00,
2013-01-27 15:10:00,29.3,-6.8,0.00,ENE,76,3.1,4.9,20,0.00,,---,0.00,VWS V14.01,2013-01-27 20:10:00,
2013-01-27 15:15:00,28.6,-7.4,29.62,East,91,6.3,6.3,20,0.00,,---,0.00,VWS V14.01,2013-01-27 20:15:00,
2013-01-27 15:20:00,28.4,-6.5,29.62,East,89,6.7,8.7,21,0.00,,---,0.00,VWS V14.01,2013-01-27 20:20:00,
2013-01-27 15:26:00,28.4,-6.5,29.59,ENE,74,6.3,6.3,21,0.00,,---,0.00,VWS V14.01,2013-01-27 20:26:00,
2013-01-27 15:31:00,28.6,-7.4,29.59,ENE,68,5.4,5.4,20,0.00,,---,0.00,VWS V14.01,2013-01-27 20:31:00,
2013-01-27 15:36:00,28.2,-9.8,29.59,East,81,6.3,6.3,18,0.00,,---,0.00,VWS V14.01,2013-01-27 20:36:00,
2013-01-27 15:41:00,28.2,-9.8,29.59,East,88,2.2,2.2,18,0.00,,---,0.00,VWS V14.01,2013-01-27 20:41:00,
2013-01-27 15:47:00,28.6,-7.4,29.59,East,81,4.9,5.8,20,0.00,,---,0.00,VWS V14.01,2013-01-27 20:47:00,
2013-01-27 15:52:00,28.6,1.8,29.59,East,87,6.3,6.3,31,0.00,,---,0.00,VWS V14.01,2013-01-27 20:52:00,
2013-01-27 15:58:00,28.6,-7.4,29.59,East,96,7.6,7.6,20,0.00,,---,0.00,VWS V14.01,2013-01-27 20:58:00,
2013-01-27 16:03:00,28.6,-7.4,29.59,NNE,28,5.4,7.6,20,0.00,,---,0.00,VWS V14.01,2013-01-27 21:03:00,
2013-01-27 16:09:00,28.2,-6.7,29.59,East,89,7.6,7.6,21,0.00,,---,0.00,VWS V14.01,2013-01-27 21:09:00,
2013-01-27 16:14:00,28.2,-6.7,29.59,East,81,8.3,8.3,21,0.00,,---,0.00,VWS V14.01,2013-01-27 21:14:00,
2013-01-27 16:19:00,28.2,-6.7,29.59,East,88,5.8,5.8,21,0.00,,---,0.00,VWS V14.01,2013-01-27 21:19:00,
2013-01-27 16:24:00,27.9,-7.0,29.62,East,88,5.8,5.8,21,0.00,,---,0.00,VWS V14.01,2013-01-27 21:24:00,
2013-01-27 16:30:00,27.9,-5.1,29.65,SSE,147,4.0,4.0,23,0.00,,---,0.00,VWS V14.01,2013-01-27 21:30:00,
2013-01-27 16:36:00,27.9,-7.0,29.65,East,96,6.3,6.3,21,0.00,,---,0.00,VWS V14.01,2013-01-27 21:36:00,
2013-01-27 16:41:00,27.9,-5.1,29.65,East,95,4.9,4.9,23,0.00,,---,0.00,VWS V14.01,2013-01-27 21:41:00,
2013-01-27 16:47:00,27.9,-5.1,29.65,East,82,5.4,5.4,23,0.00,,---,0.00,VWS V14.01,2013-01-27 21:47:00,
2013-01-27 16:52:00,27.9,-2.6,29.65,ESE,103,5.4,5.4,26,0.00,,---,0.00,VWS V14.01,2013-01-27 21:52:00,
2013-01-27 16:58:00,27.5,-2.9,29.65,SE,136,4.0,4.0,26,0.00,,---,0.00,VWS V14.01,2013-01-27 21:58:00,
2013-01-27 17:03:00,27.3,-3.0,29.65,ESE,105,4.9,4.9,26,0.00,,---,0.00,VWS V14.01,2013-01-27 22:03:00,
2013-01-27 17:08:00,27.3,-3.0,29.65,East,84,7.6,7.6,26,0.00,,---,0.00,VWS V14.01,2013-01-27 22:08:00,
2013-01-27 17:14:00,27.3,-3.0,29.65,NE,54,3.6,5.4,26,0.00,,---,0.00,VWS V14.01,2013-01-27 22:14:00,
2013-01-27 17:19:00,27.0,-3.3,29.65,NE,54,3.6,3.6,26,0.00,,---,0.00,VWS V14.01,2013-01-27 22:19:00,
2013-01-27 17:25:00,27.0,-1.8,29.65,East,101,2.7,2.7,28,0.00,,---,0.00,VWS V14.01,2013-01-27 22:25:00,
2013-01-27 17:30:00,26.8,-3.5,29.65,East,97,3.1,3.1,26,0.00,,---,0.00,VWS V14.01,2013-01-27 22:30:00,
2013-01-27 17:36:00,26.8,-3.5,29.65,East,90,4.0,4.0,26,0.00,,---,0.00,VWS V14.01,2013-01-27 22:36:00,
2013-01-27 17:41:00,28.0,7.9,29.65,ESE,105,4.9,4.9,42,0.00,,---,0.00,VWS V14.01,2013-01-27 22:41:00,
2013-01-27 17:47:00,28.0,7.9,29.65,ESE,105,4.9,4.9,42,0.00,,---,0.00,VWS V14.01,2013-01-27 22:47:00,
2013-01-27 17:52:00,27.9,7.2,29.65,East,93,4.0,4.0,41,0.00,,---,0.00,VWS V14.01,2013-01-27 22:52:00,
2013-01-27 17:57:00,27.9,7.2,29.65,ESE,102,4.0,4.0,41,0.00,,---,0.00,VWS V14.01,2013-01-27 22:57:00,
2013-01-27 18:02:00,28.2,8.6,29.65,East,94,3.6,4.0,43,0.00,,---,0.00,VWS V14.01,2013-01-27 23:02:00,
2013-01-27 18:08:00,27.9,1.8,29.65,East,88,4.0,8.3,32,0.00,,---,0.00,VWS V14.01,2013-01-27 23:08:00,
2013-01-27 18:13:00,27.9,1.8,29.65,ESE,106,5.8,5.8,32,0.00,,---,0.00,VWS V14.01,2013-01-27 23:13:00,
2013-01-27 18:18:00,26.8,0.9,29.65,East,100,3.6,3.6,32,0.00,,---,0.00,VWS V14.01,2013-01-27 23:18:00,
2013-01-27 18:23:00,26.8,0.9,29.65,East,100,5.4,5.8,32,0.00,,---,0.00,VWS V14.01,2013-01-27 23:23:00,
2013-01-27 18:29:00,26.6,1.4,29.68,ENE,78,3.1,3.6,33,0.00,,---,0.00,VWS V14.01,2013-01-27 23:29:00,
2013-01-27 18:34:00,26.6,2.0,29.68,ESE,111,2.7,2.7,34,0.00,,---,0.00,VWS V14.01,2013-01-27 23:34:00,
2013-01-27 18:39:00,26.6,2.0,29.68,ENE,64,3.6,3.6,34,0.00,,---,0.00,VWS V14.01,2013-01-27 23:39:00,
2013-01-27 18:44:00,26.4,1.9,29.68,East,97,4.9,4.9,34,0.00,,---,0.00,VWS V14.01,2013-01-27 23:44:00,
2013-01-27 18:50:00,26.4,2.5,29.68,East,86,4.9,4.9,35,0.00,,---,0.00,VWS V14.01,2013-01-27 23:50:00,
2013-01-27 18:56:00,26.1,2.8,29.68,ESE,106,10.1,10.1,36,0.00,,---,0.00,VWS V14.01,2013-01-27 23:56:00,
2013-01-27 19:01:00,25.9,4.9,29.65,East,93,2.2,2.2,40,0.00,,---,0.00,VWS V14.01,2013-01-28 00:01:00,
2013-01-27 19:06:00,25.9,4.9,29.65,East,91,4.9,4.9,40,0.00,,---,0.00,VWS V14.01,2013-01-28 00:06:00,
2013-01-27 19:11:00,25.5,5.6,29.65,ENE,78,5.8,5.8,42,0.00,,---,0.00,VWS V14.01,2013-01-28 00:11:00,
2013-01-27 19:17:00,25.5,6.7,29.65,East,99,5.8,5.8,44,0.00,,---,0.00,VWS V14.01,2013-01-28 00:17:00,
2013-01-27 19:22:00,25.5,6.7,29.65,East,94,4.9,4.9,44,0.00,,---,0.00,VWS V14.01,2013-01-28 00:22:00,
2013-01-27 19:27:00,25.5,10.4,29.65,ESE,102,3.6,4.0,52,0.00,,---,0.00,VWS V14.01,2013-01-28 00:27:00,
2013-01-27 19:32:00,25.7,11.8,29.65,ENE,77,7.6,7.6,55,0.00,,---,0.00,VWS V14.01,2013-01-28 00:32:00,
2013-01-27 19:38:00,25.0,9.9,29.65,East,91,3.6,5.8,52,0.00,,---,0.00,VWS V14.01,2013-01-28 00:38:00,
2013-01-27 19:43:00,25.2,10.0,29.65,East,95,4.0,4.0,52,0.00,,---,0.00,VWS V14.01,2013-01-28 00:43:00,
2013-01-27 19:49:00,25.2,10.0,29.65,East,101,4.0,4.0,52,0.00,,---,0.00,VWS V14.01,2013-01-28 00:49:00,
2013-01-27 19:55:00,25.2,10.4,29.62,ENE,68,7.2,7.2,53,0.00,,---,0.00,VWS V14.01,2013-01-28 00:55:00,
2013-01-27 20:00:00,25.2,10.4,29.65,East,88,5.4,5.4,53,0.00,,---,0.00,VWS V14.01,2013-01-28 01:00:00,
2013-01-27 20:05:00,25.0,10.7,29.65,ENE,67,5.4,5.4,54,0.00,,---,0.00,VWS V14.01,2013-01-28 01:05:00,
2013-01-27 20:10:00,24.8,10.9,29.65,ENE,63,3.6,3.6,55,0.00,,---,0.00,VWS V14.01,2013-01-28 01:10:00,
2013-01-27 20:16:00,24.8,10.9,29.65,East,95,4.0,4.0,55,0.00,,---,0.00,VWS V14.01,2013-01-28 01:16:00,
2013-01-27 20:21:00,26.1,16.3,29.65,East,82,5.8,5.8,66,0.00,,---,0.00,VWS V14.01,2013-01-28 01:21:00,
2013-01-27 20:27:00,27.3,20.8,29.65,ESE,106,3.1,3.1,76,0.00,,---,0.00,VWS V14.01,2013-01-28 01:27:00,
2013-01-27 20:32:00,27.7,22.3,29.65,East,79,3.6,4.0,80,0.00,,---,0.00,VWS V14.01,2013-01-28 01:32:00,
2013-01-27 20:38:00,26.1,19.9,29.65,East,87,4.0,4.0,77,0.00,,---,0.00,VWS V14.01,2013-01-28 01:38:00,
2013-01-27 20:43:00,25.3,18.5,29.65,East,93,3.6,3.6,75,0.00,,---,0.00,VWS V14.01,2013-01-28 01:43:00,
2013-01-27 20:49:00,25.2,17.4,29.62,East,87,3.1,7.6,72,0.00,,---,0.00,VWS V14.01,2013-01-28 01:49:00,
2013-01-27 20:54:00,25.2,17.4,29.62,ESE,104,5.4,8.7,72,0.00,,---,0.00,VWS V14.01,2013-01-28 01:54:00,
2013-01-27 20:59:00,25.2,15.8,29.62,ENE,75,5.4,8.3,67,0.00,,---,0.00,VWS V14.01,2013-01-28 01:59:00,
2013-01-27 21:05:00,25.2,15.8,29.62,East,98,5.8,5.8,67,0.00,,---,0.00,VWS V14.01,2013-01-28 02:05:00,
2013-01-27 21:10:00,25.2,15.4,29.59,East,85,3.6,3.6,66,0.00,,---,0.00,VWS V14.01,2013-01-28 02:10:00,
2013-01-27 21:16:00,25.3,15.6,29.59,ESE,111,5.4,5.4,66,0.00,,---,0.00,VWS V14.01,2013-01-28 02:16:00,
2013-01-27 21:21:00,25.3,15.6,29.59,East,87,5.4,5.4,66,0.00,,---,0.00,VWS V14.01,2013-01-28 02:21:00,
2013-01-27 21:26:00,25.3,14.9,29.59,East,88,5.8,5.8,64,0.00,,---,0.00,VWS V14.01,2013-01-28 02:26:00,
2013-01-27 21:31:00,25.3,14.9,29.56,ESE,113,7.6,7.6,64,0.00,,---,0.00,VWS V14.01,2013-01-28 02:31:00,
2013-01-27 21:37:00,26.8,21.1,29.56,ESE,114,3.1,8.3,79,0.00,,---,0.00,VWS V14.01,2013-01-28 02:37:00,
2013-01-27 21:42:00,26.8,21.1,29.56,East,96,3.1,5.8,79,0.00,,---,0.00,VWS V14.01,2013-01-28 02:42:00,
2013-01-27 21:48:00,26.8,21.1,29.56,East,80,3.6,7.6,79,0.00,,---,0.00,VWS V14.01,2013-01-28 02:48:00,
2013-01-27 21:54:00,25.7,18.6,29.56,East,101,3.6,5.8,74,0.00,,---,0.00,VWS V14.01,2013-01-28 02:54:00,
2013-01-27 21:59:00,25.7,18.3,29.53,ENE,74,6.3,6.3,73,0.00,,---,0.00,VWS V14.01,2013-01-28 02:59:00,
2013-01-27 22:05:00,25.7,18.3,29.53,ENE,68,5.8,5.8,73,0.00,,---,0.00,VWS V14.01,2013-01-28 03:05:00,
2013-01-27 22:10:00,25.7,18.3,29.53,East,97,5.8,5.8,73,0.00,,---,0.00,VWS V14.01,2013-01-28 03:10:00,
2013-01-27 22:16:00,25.7,18.3,29.53,East,97,8.3,8.3,73,0.00,,---,0.00,VWS V14.01,2013-01-28 03:16:00,
2013-01-27 22:22:00,27.0,21.0,29.56,East,97,4.5,4.5,78,0.00,,---,0.00,VWS V14.01,2013-01-28 03:22:00,
2013-01-27 22:28:00,27.0,21.0,29.56,ENE,78,8.3,8.3,78,0.00,,---,0.00,VWS V14.01,2013-01-28 03:28:00,
2013-01-27 22:34:00,27.0,21.0,29.53,East,87,3.6,3.6,78,0.00,,---,0.00,VWS V14.01,2013-01-28 03:34:00,
2013-01-27 22:40:00,27.0,21.0,29.53,East,82,6.3,6.3,78,0.00,,---,0.00,VWS V14.01,2013-01-28 03:40:00,
2013-01-27 22:45:00,26.4,19.0,29.53,East,90,5.4,8.1,73,0.00,,---,0.00,VWS V14.01,2013-01-28 03:45:00,
2013-01-27 22:51:00,26.4,19.0,29.53,East,97,2.7,2.7,73,0.00,,---,0.00,VWS V14.01,2013-01-28 03:51:00,
2013-01-27 22:56:00,26.6,19.1,29.53,SE,131,0.0,0.0,73,0.00,,---,0.00,VWS V14.01,2013-01-28 03:56:00,
2013-01-27 23:01:00,26.6,19.1,29.53,East,95,4.9,4.9,73,0.00,,---,0.00,VWS V14.01,2013-01-28 04:01:00,
2013-01-27 23:06:00,26.6,19.1,29.53,NE,45,5.4,5.4,73,0.00,,---,0.00,VWS V14.01,2013-01-28 04:06:00,
2013-01-27 23:12:00,28.9,24.1,29.50,NNE,20,4.0,4.9,82,0.00,,---,0.00,VWS V14.01,2013-01-28 04:12:00,
2013-01-27 23:17:00,28.9,24.1,29.50,ENE,76,0.0,3.1,82,0.00,,---,0.00,VWS V14.01,2013-01-28 04:17:00,
2013-01-27 23:23:00,27.9,22.5,29.50,East,80,0.0,3.1,80,0.00,,---,0.00,VWS V14.01,2013-01-28 04:23:00,
2013-01-27 23:28:00,27.9,22.5,29.53,East,95,4.0,4.0,80,0.00,,---,0.00,VWS V14.01,2013-01-28 04:28:00,
2013-01-27 23:33:00,27.7,22.0,29.53,ENE,67,6.3,6.3,79,0.00,,---,0.00,VWS V14.01,2013-01-28 04:33:00,
2013-01-27 23:38:00,27.7,21.7,29.53,ENE,78,5.4,5.4,78,0.00,,---,0.00,VWS V14.01,2013-01-28 04:38:00,
2013-01-27 23:44:00,27.9,21.9,29.53,East,85,4.9,4.9,78,0.00,,---,0.00,VWS V14.01,2013-01-28 04:44:00,
2013-01-27 23:50:00,27.9,21.9,29.50,NE,46,4.9,4.9,78,0.00,,---,0.00,VWS V14.01,2013-01-28 04:50:00,
2013-01-27 23:55:00,28.0,22.1,29.50,East,92,4.9,4.9,78,0.00,,---,0.00,VWS V14.01,2013-01-28 04:55:00,